createdAt,value
2024-02-02T00:01:31.194Z,66.04
2024-02-02T00:03:57.963Z,65.71
2024-02-02T00:06:24.795Z,66.68
2024-02-02T00:08:51.376Z,67.11
2024-02-02T00:11:17.980Z,66.48
2024-02-02T00:13:44.534Z,67.18
2024-02-02T00:16:11.100Z,66.30
2024-02-02T00:18:37.772Z,66.04
2024-02-02T00:21:04.531Z,66.40
2024-02-02T00:23:31.164Z,67.15
2024-02-02T00:25:57.762Z,67.38
2024-02-02T00:28:24.369Z,68.37
2024-02-02T00:30:50.950Z,68.28
2024-02-02T00:33:17.731Z,68.48
2024-02-02T00:35:44.396Z,68.69
2024-02-02T00:38:10.974Z,69.13
2024-02-02T00:40:37.644Z,70.90
2024-02-02T00:43:04.206Z,72.54
2024-02-02T00:45:30.845Z,72.05
2024-02-02T00:47:57.546Z,73.06
2024-02-02T00:50:24.158Z,73.45
2024-02-02T00:52:50.754Z,70.95
2024-02-02T00:55:17.343Z,69.72
2024-02-02T00:57:43.964Z,68.86
2024-02-02T01:00:10.593Z,68.33
2024-02-02T01:02:37.184Z,67.47
2024-02-02T01:05:03.753Z,66.93
2024-02-02T01:07:30.321Z,65.89
2024-02-02T01:09:56.936Z,65.90
2024-02-02T01:12:23.523Z,66.05
2024-02-02T01:14:50.205Z,67.18
2024-02-02T01:17:16.778Z,67.38
2024-02-02T01:19:43.407Z,67.96
2024-02-02T01:22:10.068Z,68.57
2024-02-02T01:24:36.674Z,68.92
2024-02-02T01:27:03.243Z,68.83
2024-02-02T01:29:29.841Z,69.52
2024-02-02T01:31:56.391Z,71.39
2024-02-02T01:34:23.093Z,70.97
2024-02-02T01:36:49.734Z,70.95
2024-02-02T01:39:16.332Z,70.41
2024-02-02T01:41:42.932Z,71.57
2024-02-02T01:44:09.499Z,72.28
2024-02-02T01:46:36.158Z,72.97
2024-02-02T01:49:02.926Z,72.04
2024-02-02T01:51:29.609Z,72.52
2024-02-02T01:53:56.380Z,72.38
2024-02-02T01:56:23.023Z,72.20
2024-02-02T01:58:49.570Z,72.56
2024-02-02T02:01:16.195Z,71.47
2024-02-02T02:03:42.867Z,71.36
2024-02-02T02:06:09.606Z,71.35
2024-02-02T02:08:36.223Z,72.39
2024-02-02T02:11:02.785Z,71.78
2024-02-02T02:13:29.511Z,71.06
2024-02-02T02:15:56.105Z,70.22
2024-02-02T02:18:22.839Z,70.84
2024-02-02T02:20:49.553Z,70.00
2024-02-02T02:23:16.143Z,70.18
2024-02-02T02:25:42.738Z,68.87
2024-02-02T02:28:09.332Z,68.36
2024-02-02T02:30:35.970Z,68.44
2024-02-02T02:33:02.711Z,68.57
2024-02-02T02:35:30.141Z,71.01
2024-02-02T02:37:56.767Z,71.15
2024-02-02T02:40:23.395Z,71.00
2024-02-02T02:42:49.964Z,70.07
2024-02-02T02:45:16.635Z,69.29
2024-02-02T02:47:43.318Z,69.55
2024-02-02T02:50:10.009Z,69.89
2024-02-02T02:52:36.576Z,70.58
2024-02-02T02:55:03.138Z,71.69
2024-02-02T02:57:29.803Z,69.62
2024-02-02T02:59:56.545Z,69.26
2024-02-02T03:02:23.133Z,69.14
2024-02-02T03:04:49.692Z,69.28
2024-02-02T03:07:16.408Z,68.78
2024-02-02T03:09:43.074Z,69.43
2024-02-02T03:12:09.678Z,69.27
2024-02-02T03:14:36.229Z,69.14
2024-02-02T03:17:02.815Z,69.83
2024-02-02T03:19:29.471Z,69.83
2024-02-02T03:21:56.120Z,70.51
2024-02-02T03:24:22.747Z,70.67
2024-02-02T03:26:49.374Z,71.17
2024-02-02T03:29:16.266Z,71.93
2024-02-02T03:31:43.422Z,72.93
2024-02-02T03:34:10.100Z,73.99
2024-02-02T03:36:36.847Z,75.72
2024-02-02T03:39:03.501Z,76.60
2024-02-02T03:41:30.087Z,76.20
2024-02-02T03:43:56.674Z,77.38
2024-02-02T03:46:23.257Z,77.02
2024-02-02T03:48:49.892Z,77.29
2024-02-02T03:51:16.546Z,75.34
2024-02-02T03:53:43.193Z,75.13
2024-02-02T03:56:09.801Z,75.92
2024-02-02T03:58:36.368Z,75.14
2024-02-02T04:01:03.143Z,74.90
2024-02-02T04:03:30.162Z,73.63
2024-02-02T04:05:56.881Z,73.63
2024-02-02T04:08:23.534Z,74.15
2024-02-02T04:10:50.123Z,74.90
2024-02-02T04:13:16.676Z,74.29
2024-02-02T04:15:43.345Z,73.16
2024-02-02T04:18:10.127Z,72.75
2024-02-02T04:20:36.771Z,73.72
2024-02-02T04:23:03.369Z,71.71
2024-02-02T04:25:29.964Z,71.75
2024-02-02T04:27:56.553Z,71.80
2024-02-02T04:30:23.212Z,71.60
2024-02-02T04:32:49.924Z,70.76
2024-02-02T04:35:16.560Z,70.51
2024-02-02T04:37:43.190Z,70.57
2024-02-02T04:40:09.771Z,69.93
2024-02-02T04:42:36.391Z,70.57
2024-02-02T04:45:03.096Z,70.59
2024-02-02T04:47:30.044Z,70.58
2024-02-02T04:49:56.999Z,71.88
2024-02-02T04:52:23.591Z,75.69
2024-02-02T04:54:50.176Z,77.76
2024-02-02T04:57:16.788Z,79.12
2024-02-02T04:59:43.400Z,81.48
2024-02-02T05:02:10.118Z,83.98
2024-02-02T05:04:36.736Z,84.66
2024-02-02T05:07:03.344Z,85.85
2024-02-02T05:09:30.010Z,85.15
2024-02-02T05:11:56.721Z,85.21
2024-02-02T05:14:23.318Z,84.47
2024-02-02T05:16:49.896Z,83.79
2024-02-02T05:19:16.558Z,82.95
2024-02-02T05:21:43.142Z,81.17
2024-02-02T05:24:21.981Z,77.65
2024-02-02T05:26:56.368Z,76.21
2024-02-02T05:29:22.996Z,75.76
2024-02-02T05:31:49.581Z,76.88
2024-02-02T05:34:16.257Z,79.57
2024-02-02T05:36:42.883Z,78.49
2024-02-02T05:39:09.552Z,75.34
2024-02-02T05:41:36.246Z,73.49
2024-02-02T05:44:02.803Z,72.34
2024-02-02T05:46:29.525Z,72.90
2024-02-02T05:48:56.233Z,72.32
2024-02-02T05:51:23.041Z,72.02
2024-02-02T05:53:49.700Z,71.36
2024-02-02T05:56:16.286Z,70.81
2024-02-02T05:58:42.880Z,70.57
2024-02-02T06:01:09.496Z,70.46
2024-02-02T06:03:36.178Z,70.79
2024-02-02T06:06:02.929Z,77.26
2024-02-02T06:08:29.553Z,77.28
2024-02-02T06:10:56.111Z,78.99
2024-02-02T06:13:22.764Z,77.74
2024-02-02T06:15:49.384Z,76.11
2024-02-02T06:18:16.079Z,75.47
2024-02-02T06:20:42.720Z,75.19
2024-02-02T06:23:09.366Z,74.98
2024-02-02T06:25:35.982Z,74.76
2024-02-02T06:28:02.587Z,74.81
2024-02-02T06:30:29.238Z,77.19
2024-02-02T06:32:55.885Z,76.29
2024-02-02T06:35:22.598Z,75.83
2024-02-02T06:37:49.165Z,75.56
2024-02-02T06:40:15.813Z,76.44
2024-02-02T06:42:42.452Z,79.03
2024-02-02T06:45:09.073Z,79.84
2024-02-02T06:47:35.679Z,81.70
2024-02-02T06:50:02.319Z,82.80
2024-02-02T06:52:30.076Z,83.59
2024-02-02T06:54:56.716Z,83.61
2024-02-02T06:57:23.552Z,84.62
2024-02-02T06:59:50.171Z,83.91
2024-02-02T07:02:16.728Z,84.06
2024-02-02T07:04:43.361Z,84.39
2024-02-02T07:07:09.940Z,83.31
2024-02-02T07:09:36.593Z,83.48
2024-02-02T07:12:03.260Z,85.05
2024-02-02T07:14:30.196Z,85.78
2024-02-02T07:16:56.771Z,86.22
2024-02-02T07:19:23.469Z,86.82
2024-02-02T07:21:50.085Z,87.35
2024-02-02T07:24:16.794Z,86.58
2024-02-02T07:26:43.494Z,85.48
2024-02-02T07:29:10.065Z,85.01
2024-02-02T07:31:36.667Z,83.34
2024-02-02T07:34:03.323Z,80.49
2024-02-02T07:36:29.979Z,79.32
2024-02-02T07:38:57.000Z,78.10
2024-02-02T07:41:23.761Z,76.98
2024-02-02T07:43:50.371Z,75.97
2024-02-02T07:46:17.186Z,75.90
2024-02-02T07:48:43.932Z,75.27
2024-02-02T07:51:10.662Z,73.64
2024-02-02T07:53:37.267Z,73.38
2024-02-02T07:56:03.875Z,72.44
2024-02-02T07:58:30.793Z,72.32
2024-02-02T08:00:57.385Z,75.67
2024-02-02T08:03:24.746Z,74.53
2024-02-02T08:05:51.389Z,73.38
2024-02-02T08:08:17.979Z,72.68
2024-02-02T08:10:44.540Z,73.67
2024-02-02T08:13:12.594Z,74.01
2024-02-02T08:15:40.268Z,74.54
2024-02-02T08:18:06.937Z,73.65
2024-02-02T08:20:33.569Z,73.77
2024-02-02T08:23:00.164Z,74.60
2024-02-02T08:25:27.902Z,75.87
2024-02-02T08:27:55.575Z,73.73
2024-02-02T08:30:22.289Z,73.00
2024-02-02T08:32:48.944Z,73.15
2024-02-02T08:35:15.596Z,72.42
2024-02-02T08:37:42.170Z,71.95
2024-02-02T08:40:08.787Z,71.78
2024-02-02T08:42:35.424Z,70.18
2024-02-02T08:45:02.129Z,71.88
2024-02-02T08:47:28.868Z,74.07
2024-02-02T08:49:55.577Z,73.76
2024-02-02T08:52:22.196Z,72.54
2024-02-02T08:54:48.790Z,72.09
2024-02-02T08:57:16.592Z,70.79
2024-02-02T08:59:44.069Z,69.80
2024-02-02T09:02:10.644Z,69.67
2024-02-02T09:04:37.384Z,68.46
2024-02-02T09:07:04.194Z,65.64
2024-02-02T09:09:30.977Z,60.98
2024-02-02T09:11:57.658Z,58.54
2024-02-02T09:14:24.826Z,60.39
2024-02-02T09:16:51.979Z,60.44
2024-02-02T09:19:18.675Z,59.29
2024-02-02T09:21:45.312Z,60.88
2024-02-02T09:24:11.899Z,63.22
2024-02-02T09:26:38.534Z,64.42
2024-02-02T09:29:05.090Z,64.57
2024-02-02T09:31:31.892Z,65.72
2024-02-02T09:33:58.749Z,66.70
2024-02-02T09:36:25.432Z,68.10
2024-02-02T09:38:52.055Z,66.71
2024-02-02T09:41:18.636Z,65.37
2024-02-02T09:43:45.207Z,64.92
2024-02-02T09:46:11.806Z,66.22
2024-02-02T09:48:38.578Z,66.52
2024-02-02T09:51:05.291Z,66.05
2024-02-02T09:53:31.845Z,66.04
2024-02-02T09:55:58.407Z,64.96
2024-02-02T09:58:25.256Z,64.84
2024-02-02T10:00:51.982Z,64.35
2024-02-02T10:03:18.659Z,63.82
2024-02-02T10:05:45.307Z,63.31
2024-02-02T10:08:11.949Z,63.69
2024-02-02T10:10:38.558Z,64.62
2024-02-02T10:13:05.133Z,65.11
2024-02-02T10:15:31.741Z,64.75
2024-02-02T10:17:58.520Z,64.00
2024-02-02T10:20:25.419Z,62.35
2024-02-02T10:22:51.982Z,63.35
2024-02-02T10:25:18.548Z,63.14
2024-02-02T10:27:45.140Z,62.87
2024-02-02T10:30:11.770Z,62.55
2024-02-02T10:32:38.411Z,63.90
2024-02-02T10:35:05.027Z,63.69
2024-02-02T10:37:31.582Z,63.21
2024-02-02T10:39:58.434Z,63.63
2024-02-02T10:42:25.143Z,63.51
2024-02-02T10:44:51.652Z,63.43
2024-02-02T10:47:18.121Z,64.17
2024-02-02T10:49:44.756Z,62.71
2024-02-02T10:52:11.261Z,61.49
2024-02-02T10:54:37.687Z,60.43
2024-02-02T10:57:04.241Z,59.57
2024-02-02T10:59:30.723Z,59.40
2024-02-02T11:01:57.155Z,59.19
2024-02-02T11:04:23.764Z,59.87
2024-02-02T11:06:50.319Z,59.43
2024-02-02T11:09:16.915Z,61.48
2024-02-02T11:11:43.379Z,61.55
2024-02-02T11:14:09.811Z,60.35
2024-02-02T11:16:36.257Z,61.16
2024-02-02T11:19:03.065Z,60.80
2024-02-02T11:21:29.770Z,60.43
2024-02-02T11:23:56.249Z,61.24
2024-02-02T11:26:22.659Z,62.95
2024-02-02T11:28:49.063Z,62.06
2024-02-02T11:31:15.465Z,61.14
2024-02-02T11:33:42.029Z,61.49
2024-02-02T11:36:08.573Z,59.80
2024-02-02T11:38:35.015Z,60.97
2024-02-02T11:41:01.481Z,60.37
2024-02-02T11:43:28.165Z,59.37
2024-02-02T11:45:54.765Z,59.95
2024-02-02T11:48:21.408Z,60.18
2024-02-02T11:50:48.113Z,59.96
2024-02-02T11:53:14.726Z,58.89
2024-02-02T11:55:41.291Z,58.81
2024-02-02T11:58:07.844Z,58.64
2024-02-02T12:00:34.526Z,59.58
2024-02-02T12:03:01.150Z,58.96
2024-02-02T12:05:27.782Z,58.52
2024-02-02T12:07:54.413Z,59.56
2024-02-02T12:10:21.042Z,58.59
2024-02-02T12:12:47.881Z,58.11
2024-02-02T12:15:14.638Z,58.41
2024-02-02T12:17:41.218Z,58.34
2024-02-02T12:20:07.950Z,56.40
2024-02-02T12:22:34.756Z,55.68
2024-02-02T12:25:01.324Z,55.83
2024-02-02T12:27:27.933Z,54.41
2024-02-02T12:29:54.544Z,55.75
2024-02-02T12:32:21.110Z,56.71
2024-02-02T12:34:47.817Z,55.56
2024-02-02T12:37:14.347Z,54.86
2024-02-02T12:39:41.956Z,54.61
2024-02-02T12:42:08.566Z,53.91
2024-02-02T12:44:35.095Z,53.68
2024-02-02T12:47:01.536Z,53.80
2024-02-02T12:49:28.079Z,54.81
2024-02-02T12:51:54.553Z,55.58
2024-02-02T12:54:21.087Z,55.35
2024-02-02T12:56:47.502Z,54.76
2024-02-02T12:59:13.932Z,54.98
2024-02-02T13:01:40.423Z,54.59
2024-02-02T13:04:06.973Z,55.92
2024-02-02T13:06:33.509Z,56.30
2024-02-02T13:09:00.014Z,56.94
2024-02-02T13:11:26.567Z,56.35
2024-02-02T13:13:53.103Z,56.31
2024-02-02T13:16:19.523Z,56.28
2024-02-02T13:18:45.980Z,56.45
2024-02-02T13:21:12.467Z,56.56
2024-02-02T13:23:38.911Z,56.41
2024-02-02T13:26:05.336Z,56.47
2024-02-02T13:28:31.807Z,56.33
2024-02-02T13:30:58.299Z,55.69
2024-02-02T13:33:24.841Z,56.09
2024-02-02T13:35:51.445Z,55.76
2024-02-02T13:38:18.004Z,54.66
2024-02-02T13:40:44.569Z,54.88
2024-02-02T13:43:11.146Z,55.09
2024-02-02T13:45:37.754Z,55.58
2024-02-02T13:48:04.606Z,55.25
2024-02-02T13:50:31.665Z,54.74
2024-02-02T13:52:58.413Z,55.15
2024-02-02T13:55:24.998Z,56.88
2024-02-02T13:57:51.569Z,55.92
2024-02-02T14:00:18.185Z,55.38
2024-02-02T14:02:44.808Z,55.41
2024-02-02T14:05:11.395Z,56.13
2024-02-02T14:07:37.983Z,55.89
2024-02-02T14:10:04.624Z,55.67
2024-02-02T14:12:31.223Z,55.60
2024-02-02T14:14:57.900Z,55.44
2024-02-02T14:17:24.478Z,55.15
2024-02-02T14:19:51.134Z,54.74
2024-02-02T14:22:17.790Z,54.39
2024-02-02T14:24:44.389Z,54.20
2024-02-02T14:27:11.044Z,53.77
2024-02-02T14:29:37.637Z,53.11
2024-02-02T14:32:04.235Z,54.43
2024-02-02T14:34:30.930Z,53.59
2024-02-02T14:36:57.601Z,53.25
2024-02-02T14:39:26.423Z,53.78
2024-02-02T14:41:53.462Z,54.16
2024-02-02T14:44:20.072Z,53.53
2024-02-02T14:46:46.648Z,54.85
2024-02-02T14:49:13.303Z,55.38
2024-02-02T14:51:40.004Z,55.18
2024-02-02T14:54:06.659Z,55.16
2024-02-02T14:56:33.267Z,55.81
2024-02-02T14:58:59.861Z,55.44
2024-02-02T15:01:26.492Z,55.70
2024-02-02T15:03:53.246Z,55.24
2024-02-02T15:06:19.993Z,55.64
2024-02-02T15:08:46.631Z,55.84
2024-02-02T15:11:13.188Z,56.14
2024-02-02T15:13:39.815Z,55.93
2024-02-02T15:16:06.407Z,56.10
2024-02-02T15:18:33.091Z,56.23
2024-02-02T15:20:59.916Z,55.84
2024-02-02T15:23:26.591Z,56.07
2024-02-02T15:25:53.166Z,56.46
2024-02-02T15:28:19.826Z,56.41
2024-02-02T15:30:46.454Z,56.28
2024-02-02T15:33:13.175Z,56.92
2024-02-02T15:35:39.818Z,56.93
2024-02-02T15:38:06.413Z,58.04
2024-02-02T15:40:33.041Z,57.61
2024-02-02T15:42:59.757Z,58.06
2024-02-02T15:45:26.438Z,58.78
2024-02-02T15:47:53.093Z,58.14
2024-02-02T15:50:19.840Z,58.23
2024-02-02T15:52:46.482Z,58.29
2024-02-02T15:55:13.116Z,58.89
2024-02-02T15:57:39.776Z,60.02
2024-02-02T16:00:06.415Z,58.97
2024-02-02T16:02:32.972Z,60.40
2024-02-02T16:04:59.589Z,58.56
2024-02-02T16:07:26.256Z,58.24
2024-02-02T16:09:52.968Z,58.82
2024-02-02T16:12:19.642Z,58.68
2024-02-02T16:14:46.238Z,57.78
2024-02-02T16:17:12.820Z,57.61
2024-02-02T16:19:39.473Z,58.51
2024-02-02T16:22:06.073Z,57.63
2024-02-02T16:24:32.735Z,57.01
2024-02-02T16:26:59.376Z,57.64
2024-02-02T16:29:25.961Z,56.75
2024-02-02T16:31:52.543Z,56.19
2024-02-02T16:34:19.283Z,56.33
2024-02-02T16:36:45.957Z,57.63
2024-02-02T16:39:12.629Z,57.68
2024-02-02T16:41:39.284Z,58.35
2024-02-02T16:44:05.894Z,58.01
2024-02-02T16:46:32.481Z,56.62
2024-02-02T16:48:59.080Z,57.23
2024-02-02T16:51:25.714Z,57.06
2024-02-02T16:53:52.361Z,57.51
2024-02-02T16:56:18.962Z,56.69
2024-02-02T16:58:45.545Z,56.67
2024-02-02T17:01:12.150Z,55.84
2024-02-02T17:03:38.771Z,55.77
2024-02-02T17:06:05.480Z,54.72
2024-02-02T17:08:32.108Z,55.81
2024-02-02T17:10:58.706Z,56.59
2024-02-02T17:13:25.289Z,55.87
2024-02-02T17:15:51.964Z,56.14
2024-02-02T17:18:18.753Z,56.02
2024-02-02T17:20:45.404Z,56.43
2024-02-02T17:23:11.960Z,56.41
2024-02-02T17:25:38.651Z,56.58
2024-02-02T17:28:05.220Z,55.18
2024-02-02T17:30:31.878Z,56.43
2024-02-02T17:32:58.588Z,55.48
2024-02-02T17:35:33.902Z,55.37
2024-02-02T17:38:04.580Z,55.77
2024-02-02T17:40:31.137Z,55.70
2024-02-02T17:42:57.688Z,57.72
2024-02-02T17:45:24.280Z,57.63
2024-02-02T17:47:50.921Z,58.68
2024-02-02T17:50:17.614Z,58.18
2024-02-02T17:52:44.245Z,58.98
2024-02-02T17:55:10.796Z,60.49
2024-02-02T17:57:37.455Z,61.02
2024-02-02T18:00:04.167Z,61.26
2024-02-02T18:02:30.778Z,61.49
2024-02-02T18:04:57.345Z,62.03
2024-02-02T18:07:30.284Z,62.82
2024-02-02T18:10:02.225Z,62.86
2024-02-02T18:12:28.855Z,64.00
2024-02-02T18:14:55.429Z,64.13
2024-02-02T18:17:22.131Z,65.42
2024-02-02T18:19:48.708Z,65.56
2024-02-02T18:22:15.281Z,66.08
2024-02-02T18:24:41.912Z,65.85
2024-02-02T18:27:08.659Z,65.59
2024-02-02T18:29:35.232Z,66.05
2024-02-02T18:32:01.818Z,66.48
2024-02-02T18:34:28.454Z,67.05
2024-02-02T18:36:55.147Z,67.10
2024-02-02T18:39:21.771Z,67.02
2024-02-02T18:41:48.365Z,67.35
2024-02-02T18:44:14.917Z,67.16
2024-02-02T18:46:41.488Z,66.47
2024-02-02T18:49:08.205Z,66.27
2024-02-02T18:51:34.899Z,65.53
2024-02-02T18:54:01.580Z,65.22
2024-02-02T18:56:28.225Z,64.55
2024-02-02T18:58:54.800Z,64.07
2024-02-02T19:01:21.404Z,64.04
2024-02-02T19:03:48.090Z,63.05
2024-02-02T19:06:14.809Z,62.87
2024-02-02T19:08:41.437Z,61.35
2024-02-02T19:11:07.996Z,59.50
2024-02-02T19:13:34.562Z,57.08
2024-02-02T19:16:01.128Z,56.72
2024-02-02T19:18:27.896Z,55.60
2024-02-02T19:20:54.558Z,56.14
2024-02-02T19:23:21.119Z,57.84
2024-02-02T19:25:47.665Z,59.02
2024-02-02T19:28:14.322Z,58.88
2024-02-02T19:30:40.873Z,58.69
2024-02-02T19:33:07.578Z,59.06
2024-02-02T19:35:34.275Z,58.53
2024-02-02T19:38:00.808Z,58.76
2024-02-02T19:40:27.388Z,59.05
2024-02-02T19:42:53.953Z,59.06
2024-02-02T19:45:20.666Z,59.19
2024-02-02T19:47:47.361Z,57.40
2024-02-02T19:50:14.065Z,57.26
2024-02-02T19:52:40.634Z,57.86
2024-02-02T19:55:07.180Z,57.08
2024-02-02T19:57:33.799Z,57.67
2024-02-02T20:00:00.503Z,56.88
2024-02-02T20:02:27.088Z,56.88
2024-02-02T20:04:53.678Z,57.50
2024-02-02T20:07:20.426Z,57.73
2024-02-02T20:09:47.122Z,57.99
2024-02-02T20:12:13.784Z,57.51
2024-02-02T20:14:40.356Z,57.03
2024-02-02T20:17:06.909Z,57.00
2024-02-02T20:19:33.580Z,56.91
2024-02-02T20:22:00.268Z,56.40
2024-02-02T20:24:26.866Z,56.43
2024-02-02T20:26:53.431Z,56.94
2024-02-02T20:29:20.034Z,57.93
2024-02-02T20:31:46.591Z,58.54
2024-02-02T20:34:13.271Z,59.31
2024-02-02T20:36:39.929Z,59.46
2024-02-02T20:39:06.535Z,59.90
2024-02-02T20:41:33.128Z,59.81
2024-02-02T20:43:59.688Z,60.26
2024-02-02T20:46:26.224Z,59.82
2024-02-02T20:48:52.963Z,59.84
2024-02-02T20:51:19.721Z,60.38
2024-02-02T20:53:46.395Z,61.12
2024-02-02T20:56:12.958Z,60.15
2024-02-02T20:58:39.535Z,59.72
2024-02-02T21:01:06.449Z,59.34
2024-02-02T21:03:33.143Z,59.56
2024-02-02T21:06:00.604Z,59.45
2024-02-02T21:08:27.476Z,60.21
2024-02-02T21:10:54.072Z,59.03
2024-02-02T21:13:20.650Z,58.29
2024-02-02T21:15:47.242Z,57.12
2024-02-02T21:18:13.935Z,56.80
2024-02-02T21:20:40.596Z,57.01
2024-02-02T21:23:07.174Z,57.05
2024-02-02T21:25:34.059Z,57.24
2024-02-02T21:28:00.623Z,57.07
2024-02-02T21:30:27.186Z,56.90
2024-02-02T21:32:53.851Z,56.50
2024-02-02T21:35:20.510Z,55.44
2024-02-02T21:37:47.090Z,56.52
2024-02-02T21:40:13.640Z,56.36
2024-02-02T21:42:40.393Z,56.60
2024-02-02T21:45:07.080Z,56.02
2024-02-02T21:47:33.680Z,55.17
2024-02-02T21:50:00.485Z,54.89
2024-02-02T21:52:27.589Z,54.67
2024-02-02T21:54:54.238Z,55.42
2024-02-02T21:57:20.834Z,57.44
2024-02-02T21:59:49.882Z,57.54
2024-02-02T22:02:16.579Z,57.34
2024-02-02T22:04:43.163Z,56.63
2024-02-02T22:07:09.854Z,57.63
2024-02-02T22:09:36.491Z,58.26
2024-02-02T22:12:03.215Z,58.96
2024-02-02T22:14:29.820Z,60.07
2024-02-02T22:16:56.370Z,62.15
2024-02-02T22:19:23.009Z,61.06
2024-02-02T22:21:49.758Z,63.22
2024-02-02T22:24:16.471Z,63.73
2024-02-02T22:26:43.087Z,63.03
2024-02-02T22:29:09.652Z,62.25
2024-02-02T22:31:36.285Z,62.26
2024-02-02T22:34:03.137Z,64.33
2024-02-02T22:36:30.091Z,64.68
2024-02-02T22:38:56.703Z,65.22
2024-02-02T22:41:32.335Z,68.66
2024-02-02T22:44:00.963Z,70.45
2024-02-02T22:46:27.550Z,70.46
2024-02-02T22:48:54.364Z,71.17
2024-02-02T22:51:21.126Z,71.41
2024-02-02T22:53:47.728Z,70.76
2024-02-02T22:56:14.327Z,72.68
2024-02-02T22:58:40.940Z,72.27
2024-02-02T23:01:07.604Z,72.42
2024-02-02T23:03:34.234Z,73.37
2024-02-02T23:06:00.872Z,72.50
2024-02-02T23:08:27.521Z,71.94
2024-02-02T23:10:54.091Z,72.63
2024-02-02T23:13:20.660Z,72.17
2024-02-02T23:15:47.301Z,74.57
2024-02-02T23:18:14.015Z,74.11
2024-02-02T23:20:40.628Z,72.57
2024-02-02T23:23:07.191Z,73.58
2024-02-02T23:25:33.743Z,71.96
2024-02-02T23:28:00.374Z,71.57
2024-02-02T23:30:27.035Z,71.61
2024-02-02T23:32:53.717Z,70.94
2024-02-02T23:35:20.316Z,71.61
2024-02-02T23:37:46.922Z,71.40
2024-02-02T23:40:13.508Z,72.12
2024-02-02T23:42:40.255Z,72.95
2024-02-02T23:45:06.901Z,73.02
2024-02-02T23:47:33.500Z,72.54
2024-02-02T23:50:00.234Z,74.06
2024-02-02T23:52:27.102Z,73.58
2024-02-02T23:54:53.686Z,71.56
2024-02-02T23:57:20.323Z,71.90
2024-02-02T23:59:46.897Z,70.87
